createdAt,value
2018-12-18T00:00:11.944Z,135.67
2018-12-18T00:02:40.318Z,145.33
2018-12-18T00:05:14.190Z,134.73
2018-12-18T00:07:42.573Z,128.97
2018-12-18T00:10:11.020Z,123.57
2018-12-18T00:12:39.407Z,125.47
2018-12-18T00:15:07.979Z,130.03
2018-12-18T00:17:36.332Z,137.00
2018-12-18T00:20:05.299Z,122.20
2018-12-18T00:22:33.648Z,123.93
2018-12-18T00:25:02.022Z,135.80
2018-12-18T00:27:30.384Z,128.13
2018-12-18T00:29:58.763Z,122.63
2018-12-18T00:32:27.107Z,113.57
2018-12-18T00:34:55.458Z,122.90
2018-12-18T00:37:23.795Z,129.13
2018-12-18T00:39:52.173Z,123.30
2018-12-18T00:42:20.489Z,122.23
2018-12-18T00:44:48.856Z,121.80
2018-12-18T00:47:17.195Z,123.00
2018-12-18T00:49:45.563Z,120.67
2018-12-18T00:52:13.991Z,114.93
2018-12-18T00:54:42.356Z,119.53
2018-12-18T00:57:10.682Z,124.90
2018-12-18T00:59:39.016Z,111.73
2018-12-18T01:02:07.511Z,113.50
2018-12-18T01:04:35.886Z,105.97
2018-12-18T01:07:04.220Z,120.87
2018-12-18T01:09:32.891Z,118.27
2018-12-18T01:12:01.223Z,122.17
2018-12-18T01:14:29.590Z,119.87
2018-12-18T01:16:57.931Z,104.40
2018-12-18T01:19:26.279Z,111.30
2018-12-18T01:21:54.730Z,120.30
2018-12-18T01:24:23.123Z,115.87
2018-12-18T01:26:51.451Z,113.07
2018-12-18T01:29:19.905Z,118.70
2018-12-18T01:31:48.339Z,121.07
2018-12-18T01:34:16.703Z,126.47
2018-12-18T01:36:45.058Z,123.63
2018-12-18T01:39:13.419Z,122.00
2018-12-18T01:41:41.755Z,130.83
2018-12-18T01:44:10.124Z,129.23
2018-12-18T01:46:38.587Z,124.90
2018-12-18T01:49:06.985Z,132.77
2018-12-18T01:51:35.331Z,118.93
2018-12-18T01:54:03.688Z,126.20
2018-12-18T01:56:32.034Z,125.00
2018-12-18T01:59:00.373Z,117.53
2018-12-18T02:01:28.747Z,125.07
2018-12-18T02:03:57.076Z,108.87
2018-12-18T02:06:25.427Z,125.20
2018-12-18T02:08:53.773Z,119.80
2018-12-18T02:11:22.269Z,122.80
2018-12-18T02:13:50.588Z,112.10
2018-12-18T02:16:18.974Z,113.27
2018-12-18T02:18:47.330Z,120.10
2018-12-18T02:21:15.695Z,107.70
2018-12-18T02:23:44.028Z,114.20
2018-12-18T02:26:12.387Z,120.50
2018-12-18T02:28:40.745Z,108.23
2018-12-18T02:31:09.094Z,125.87
2018-12-18T02:33:37.651Z,108.27
2018-12-18T02:36:06.011Z,105.83
2018-12-18T02:38:34.375Z,110.93
2018-12-18T02:41:02.754Z,121.40
2018-12-18T02:43:31.093Z,124.87
2018-12-18T02:45:59.552Z,113.50
2018-12-18T02:48:28.392Z,115.37
2018-12-18T02:50:56.739Z,105.17
2018-12-18T02:53:25.072Z,117.73
2018-12-18T02:55:53.536Z,106.67
2018-12-18T02:58:21.912Z,109.73
2018-12-18T03:00:50.276Z,111.37
2018-12-18T03:03:18.643Z,116.67
2018-12-18T03:05:47.011Z,110.07
2018-12-18T03:08:15.364Z,112.23
2018-12-18T03:10:43.713Z,106.00
2018-12-18T03:13:12.042Z,109.97
2018-12-18T03:15:40.418Z,107.57
2018-12-18T03:18:08.780Z,99.40
2018-12-18T03:20:37.123Z,104.83
2018-12-18T03:23:05.484Z,108.00
2018-12-18T03:25:33.848Z,111.87
2018-12-18T03:28:02.218Z,100.33
2018-12-18T03:30:37.347Z,104.47
2018-12-18T03:33:05.724Z,112.40
2018-12-18T03:35:34.085Z,102.07
2018-12-18T03:38:02.439Z,99.47
2018-12-18T03:40:30.889Z,103.87
2018-12-18T03:42:59.283Z,102.13
2018-12-18T03:45:27.618Z,106.77
2018-12-18T03:47:55.985Z,94.70
2018-12-18T03:50:24.324Z,99.80
2018-12-18T03:52:52.705Z,95.30
2018-12-18T03:55:21.055Z,94.13
2018-12-18T03:57:49.432Z,102.77
2018-12-18T04:00:17.773Z,92.20
2018-12-18T04:02:46.233Z,95.40
2018-12-18T04:05:14.597Z,102.63
2018-12-18T04:07:42.937Z,114.17
2018-12-18T04:10:11.287Z,104.47
2018-12-18T04:12:39.668Z,109.80
2018-12-18T04:15:08.190Z,105.10
2018-12-18T04:17:36.693Z,98.97
2018-12-18T04:20:05.421Z,105.67
2018-12-18T04:22:33.808Z,111.20
2018-12-18T04:25:02.164Z,116.60
2018-12-18T04:27:30.491Z,101.10
2018-12-18T04:29:58.847Z,103.50
2018-12-18T04:32:27.214Z,96.83
2018-12-18T04:34:55.588Z,100.70
2018-12-18T04:37:23.931Z,106.70
2018-12-18T04:39:52.295Z,100.07
2018-12-18T04:42:20.642Z,95.73
2018-12-18T04:44:49.076Z,89.53
2018-12-18T04:47:17.445Z,103.00
2018-12-18T04:49:45.807Z,88.63
2018-12-18T04:52:14.167Z,93.60
2018-12-18T04:54:42.523Z,90.87
2018-12-18T04:57:10.883Z,87.20
2018-12-18T04:59:39.254Z,93.47
2018-12-18T05:02:07.608Z,89.70
2018-12-18T05:04:35.984Z,94.23
2018-12-18T05:07:04.443Z,91.80
2018-12-18T05:09:32.804Z,93.83
2018-12-18T05:12:01.151Z,108.40
2018-12-18T05:14:29.525Z,106.67
2018-12-18T05:16:57.872Z,110.23
2018-12-18T05:19:26.231Z,100.83
2018-12-18T05:21:54.603Z,110.40
2018-12-18T05:24:22.945Z,106.20
2018-12-18T05:26:51.297Z,117.47
2018-12-18T05:29:19.666Z,114.93
2018-12-18T05:31:48.017Z,106.43
2018-12-18T05:34:16.374Z,108.63
2018-12-18T05:36:44.747Z,108.27
2018-12-18T05:39:13.237Z,103.77
2018-12-18T05:41:41.690Z,111.17
2018-12-18T05:44:10.075Z,107.93
2018-12-18T05:46:38.440Z,118.77
2018-12-18T05:49:06.857Z,102.17
2018-12-18T05:51:35.213Z,110.77
2018-12-18T05:54:03.604Z,112.37
2018-12-18T05:56:31.926Z,115.23
2018-12-18T05:59:00.346Z,109.97
2018-12-18T06:01:28.723Z,109.73
2018-12-18T06:03:57.109Z,113.00
2018-12-18T06:06:25.484Z,101.90
2018-12-18T06:08:53.887Z,107.33
2018-12-18T06:11:22.252Z,113.27
2018-12-18T06:13:50.750Z,105.03
2018-12-18T06:16:19.117Z,102.37
2018-12-18T06:18:47.457Z,109.00
2018-12-18T06:21:16.042Z,103.17
2018-12-18T06:23:44.471Z,103.57
2018-12-18T06:26:12.877Z,105.83
2018-12-18T06:28:41.237Z,112.13
2018-12-18T06:31:09.593Z,105.47
2018-12-18T06:33:38.006Z,100.57
2018-12-18T06:36:06.559Z,94.60
2018-12-18T06:38:34.917Z,100.33
2018-12-18T06:41:03.342Z,111.30
2018-12-18T06:43:31.772Z,99.83
2018-12-18T06:46:00.258Z,107.67
2018-12-18T06:48:28.779Z,100.27
2018-12-18T06:50:57.119Z,94.07
2018-12-18T06:53:25.583Z,103.63
2018-12-18T06:55:54.797Z,96.60
2018-12-18T06:58:23.156Z,94.50
2018-12-18T07:00:51.515Z,116.00
2018-12-18T07:03:19.896Z,100.00
2018-12-18T07:05:48.216Z,108.63
2018-12-18T07:08:16.599Z,111.53
2018-12-18T07:10:45.028Z,101.23
2018-12-18T07:13:13.446Z,96.63
2018-12-18T07:15:41.822Z,89.43
2018-12-18T07:18:10.214Z,101.13
2018-12-18T07:20:38.599Z,105.67
2018-12-18T07:23:07.316Z,100.87
2018-12-18T07:25:35.691Z,96.73
2018-12-18T07:28:04.056Z,106.30
2018-12-18T07:30:32.568Z,96.57
2018-12-18T07:33:00.942Z,92.60
2018-12-18T07:35:29.455Z,90.13
2018-12-18T07:37:57.827Z,90.07
2018-12-18T07:40:26.304Z,91.90
2018-12-18T07:42:54.777Z,93.00
2018-12-18T07:45:23.119Z,73.77
2018-12-18T07:47:51.573Z,72.60
2018-12-18T07:50:19.938Z,83.87
2018-12-18T07:52:48.315Z,79.00
2018-12-18T07:55:16.653Z,70.97
2018-12-18T07:57:45.009Z,72.83
2018-12-18T08:00:13.459Z,82.97
2018-12-18T08:02:41.808Z,74.07
2018-12-18T08:05:10.134Z,73.17
2018-12-18T08:07:38.504Z,76.00
2018-12-18T08:10:07.398Z,67.43
2018-12-18T08:12:35.854Z,69.20
2018-12-18T08:15:04.569Z,73.67
2018-12-18T08:17:32.936Z,73.00
2018-12-18T08:20:01.378Z,66.50
2018-12-18T08:22:29.796Z,66.90
2018-12-18T08:24:58.156Z,71.07
2018-12-18T08:27:26.575Z,77.80
2018-12-18T08:29:55.015Z,83.20
2018-12-18T08:32:23.399Z,67.47
2018-12-18T08:34:51.783Z,69.30
2018-12-18T08:37:20.247Z,71.67
2018-12-18T08:39:48.645Z,70.83
2018-12-18T08:42:17.015Z,66.70
2018-12-18T08:44:45.401Z,69.97
2018-12-18T08:47:13.736Z,61.70
2018-12-18T08:49:42.134Z,75.70
2018-12-18T08:52:10.471Z,74.17
2018-12-18T08:54:38.904Z,74.57
2018-12-18T08:57:07.229Z,72.50
2018-12-18T08:59:35.601Z,72.03
2018-12-18T09:02:04.072Z,74.73
2018-12-18T09:04:32.453Z,66.67
2018-12-18T09:07:00.866Z,68.23
2018-12-18T09:09:29.336Z,69.20
2018-12-18T09:11:57.728Z,72.80
2018-12-18T09:14:26.063Z,74.23
2018-12-18T09:16:59.920Z,77.47
2018-12-18T09:19:28.311Z,74.57
2018-12-18T09:21:56.651Z,76.17
2018-12-18T09:24:24.975Z,81.03
2018-12-18T09:26:53.339Z,68.53
2018-12-18T09:29:21.723Z,81.23
2018-12-18T09:31:50.411Z,80.27
2018-12-18T09:34:18.780Z,71.33
2018-12-18T09:36:47.172Z,77.77
2018-12-18T09:39:19.338Z,77.50
2018-12-18T09:41:48.151Z,75.33
2018-12-18T09:44:18.771Z,79.80
2018-12-18T09:46:47.167Z,84.43
2018-12-18T09:49:15.511Z,84.53
2018-12-18T09:51:43.878Z,75.87
2018-12-18T09:54:12.235Z,73.43
2018-12-18T09:56:46.123Z,73.57
2018-12-18T09:59:14.501Z,66.80
2018-12-18T10:01:43.107Z,75.33
2018-12-18T10:04:11.458Z,70.03
2018-12-18T10:06:39.856Z,73.70
2018-12-18T10:09:09.759Z,76.20
2018-12-18T10:11:38.625Z,73.20
2018-12-18T10:14:07.068Z,70.40
2018-12-18T10:16:35.418Z,80.17
2018-12-18T10:19:03.932Z,71.60
2018-12-18T10:21:32.318Z,75.73
2018-12-18T10:24:00.671Z,77.90
2018-12-18T10:26:29.054Z,81.77
2018-12-18T10:28:57.397Z,70.73
2018-12-18T10:31:26.001Z,78.90
2018-12-18T10:33:54.387Z,67.67
2018-12-18T10:36:22.768Z,73.63
2018-12-18T10:38:51.088Z,77.13
2018-12-18T10:41:19.465Z,77.87
2018-12-18T10:43:47.844Z,83.93
2018-12-18T10:46:16.199Z,82.50
2018-12-18T10:48:44.601Z,80.57
2018-12-18T10:51:13.483Z,80.03
2018-12-18T10:53:41.896Z,73.00
2018-12-18T10:56:10.372Z,80.17
2018-12-18T10:58:38.743Z,82.63
2018-12-18T11:01:12.413Z,84.33
2018-12-18T11:03:40.797Z,86.43
2018-12-18T11:06:10.062Z,78.40
2018-12-18T11:08:38.743Z,79.03
2018-12-18T11:11:07.120Z,80.63
2018-12-18T11:13:35.490Z,80.43
2018-12-18T11:16:03.943Z,73.90
2018-12-18T11:18:32.272Z,68.33
2018-12-18T11:21:00.729Z,72.43
2018-12-18T11:23:29.091Z,70.23
2018-12-18T11:25:57.460Z,67.53
2018-12-18T11:28:25.831Z,70.23
2018-12-18T11:30:54.173Z,61.53
2018-12-18T11:33:22.524Z,70.87
2018-12-18T11:35:50.892Z,70.77
2018-12-18T11:38:19.292Z,61.80
2018-12-18T11:40:47.616Z,65.70
2018-12-18T11:43:15.992Z,68.50
2018-12-18T11:45:44.343Z,58.23
2018-12-18T11:48:12.696Z,73.03
2018-12-18T11:50:41.047Z,62.03
2018-12-18T11:53:09.452Z,56.83
2018-12-18T11:55:37.787Z,58.47
2018-12-18T11:58:06.163Z,62.70
2018-12-18T12:00:34.738Z,59.47
2018-12-18T12:03:03.211Z,56.90
2018-12-18T12:05:31.561Z,51.93
2018-12-18T12:07:59.938Z,56.37
2018-12-18T12:10:28.303Z,50.40
2018-12-18T12:12:56.663Z,53.00
2018-12-18T12:15:24.984Z,58.13
2018-12-18T12:17:53.644Z,51.63
2018-12-18T12:20:22.014Z,48.93
2018-12-18T12:22:50.410Z,48.53
2018-12-18T12:25:18.791Z,50.97
2018-12-18T12:27:52.500Z,54.00
2018-12-18T12:30:20.942Z,54.37
2018-12-18T12:32:49.308Z,48.20
2018-12-18T12:35:17.777Z,46.47
2018-12-18T12:37:46.127Z,43.60
2018-12-18T12:40:14.567Z,38.60
2018-12-18T12:42:42.931Z,40.40
2018-12-18T12:45:11.319Z,43.93
2018-12-18T12:47:39.716Z,38.97
2018-12-18T12:50:09.411Z,30.83
2018-12-18T12:52:37.852Z,36.60
2018-12-18T12:55:06.347Z,33.80
2018-12-18T12:57:34.833Z,35.83
2018-12-18T13:00:03.215Z,35.90
2018-12-18T13:02:31.660Z,30.87
2018-12-18T13:04:59.987Z,28.40
2018-12-18T13:07:28.384Z,33.67
2018-12-18T13:09:56.712Z,30.33
2018-12-18T13:12:25.064Z,29.63
2018-12-18T13:14:53.407Z,27.37
2018-12-18T13:17:21.852Z,27.20
2018-12-18T13:19:50.228Z,24.33
2018-12-18T13:22:18.563Z,26.90
2018-12-18T13:24:46.900Z,22.10
2018-12-18T13:27:15.261Z,29.27
2018-12-18T13:29:43.735Z,21.50
2018-12-18T13:32:12.136Z,25.23
2018-12-18T13:34:40.511Z,27.57
2018-12-18T13:37:08.908Z,28.27
2018-12-18T13:39:37.275Z,26.60
2018-12-18T13:42:05.663Z,23.57
2018-12-18T13:44:34.049Z,25.47
2018-12-18T13:47:02.499Z,36.70
2018-12-18T13:49:30.903Z,25.97
2018-12-18T13:51:59.243Z,26.20
2018-12-18T13:54:27.601Z,29.13
2018-12-18T13:56:56.016Z,26.20
2018-12-18T13:59:24.427Z,23.93
2018-12-18T14:01:52.811Z,23.57
2018-12-18T14:04:21.165Z,25.57
2018-12-18T14:06:49.882Z,24.43
2018-12-18T14:09:18.527Z,30.17
2018-12-18T14:11:46.876Z,28.23
2018-12-18T14:14:15.282Z,28.30
2018-12-18T14:16:43.664Z,28.50
2018-12-18T14:19:12.067Z,30.43
2018-12-18T14:21:40.445Z,25.00
2018-12-18T14:24:08.984Z,28.93
2018-12-18T14:26:37.392Z,23.93
2018-12-18T14:29:05.766Z,23.20
2018-12-18T14:31:34.136Z,25.47
2018-12-18T14:34:02.475Z,24.90
2018-12-18T14:36:30.835Z,26.63
2018-12-18T14:38:59.195Z,32.30
2018-12-18T14:41:27.615Z,21.83
2018-12-18T14:43:56.028Z,23.07
2018-12-18T14:46:24.383Z,24.70
2018-12-18T14:48:52.739Z,22.13
2018-12-18T14:51:21.104Z,25.50
2018-12-18T14:53:49.496Z,24.90
2018-12-18T14:56:17.944Z,24.20
2018-12-18T14:58:46.337Z,22.00
2018-12-18T15:01:14.797Z,18.63
2018-12-18T15:03:43.149Z,24.83
2018-12-18T15:06:11.546Z,24.63
2018-12-18T15:08:39.895Z,25.17
2018-12-18T15:11:08.250Z,23.67
2018-12-18T15:13:36.692Z,25.73
2018-12-18T15:16:05.137Z,23.57
2018-12-18T15:18:33.618Z,23.47
2018-12-18T15:21:01.994Z,20.40
2018-12-18T15:23:30.371Z,22.70
2018-12-18T15:25:58.780Z,24.03
2018-12-18T15:28:27.174Z,21.33
2018-12-18T15:30:55.671Z,21.50
2018-12-18T15:33:24.047Z,26.57
2018-12-18T15:35:52.772Z,25.97
2018-12-18T15:38:21.149Z,26.77
2018-12-18T15:40:49.548Z,25.37
2018-12-18T15:43:17.987Z,22.50
2018-12-18T15:45:46.504Z,20.00
2018-12-18T15:48:14.919Z,24.47
2018-12-18T15:50:43.340Z,24.07
2018-12-18T15:53:11.679Z,28.67
2018-12-18T15:55:40.115Z,22.00
2018-12-18T15:58:08.472Z,20.80
2018-12-18T16:00:36.899Z,22.33
2018-12-18T16:03:05.267Z,23.20
2018-12-18T16:05:33.777Z,16.73
2018-12-18T16:08:02.244Z,19.87
2018-12-18T16:10:30.636Z,16.43
2018-12-18T16:12:59.056Z,20.13
2018-12-18T16:15:27.409Z,21.00
2018-12-18T16:17:55.752Z,20.20
2018-12-18T16:20:24.843Z,17.13
2018-12-18T16:22:53.278Z,19.83
2018-12-18T16:25:21.666Z,17.07
2018-12-18T16:27:50.047Z,17.43
2018-12-18T16:30:18.425Z,15.47
2018-12-18T16:32:46.867Z,17.67
2018-12-18T16:35:15.275Z,22.07
2018-12-18T16:37:43.631Z,17.37
2018-12-18T16:40:11.948Z,18.03
2018-12-18T16:42:40.294Z,21.73
2018-12-18T16:45:08.675Z,19.10
2018-12-18T16:47:37.115Z,20.70
2018-12-18T16:50:05.963Z,18.47
2018-12-18T16:52:34.316Z,17.47
2018-12-18T16:55:02.655Z,16.83
2018-12-18T16:57:31.038Z,17.30
2018-12-18T16:59:59.379Z,20.00
2018-12-18T17:02:27.808Z,17.27
2018-12-18T17:04:56.178Z,22.77
2018-12-18T17:07:29.573Z,18.77
2018-12-18T17:09:54.997Z,20.30
2018-12-18T17:12:23.363Z,20.47
2018-12-18T17:14:51.698Z,18.67
2018-12-18T17:17:20.068Z,19.47
2018-12-18T17:19:48.539Z,21.13
2018-12-18T17:22:16.897Z,23.13
2018-12-18T17:24:45.284Z,18.23
2018-12-18T17:27:13.746Z,23.53
2018-12-18T17:29:42.103Z,20.37
2018-12-18T17:32:10.484Z,22.03
2018-12-18T17:34:38.919Z,25.17
2018-12-18T17:37:07.355Z,17.33
2018-12-18T17:39:35.705Z,17.00
2018-12-18T17:42:04.035Z,15.60
2018-12-18T17:44:32.368Z,18.97
2018-12-18T17:47:00.719Z,17.60
2018-12-18T17:49:29.121Z,14.37
2018-12-18T17:51:57.579Z,16.47
2018-12-18T17:54:26.047Z,15.67
2018-12-18T17:56:54.435Z,18.73
2018-12-18T17:59:22.784Z,16.03
2018-12-18T18:01:51.119Z,13.03
2018-12-18T18:04:19.542Z,13.47
2018-12-18T18:06:47.870Z,17.67
2018-12-18T18:09:16.224Z,18.67
2018-12-18T18:11:44.572Z,16.33
2018-12-18T18:14:12.981Z,11.93
2018-12-18T18:16:41.339Z,11.37
2018-12-18T18:19:09.680Z,14.80
2018-12-18T18:21:38.196Z,15.40
2018-12-18T18:24:07.379Z,10.43
2018-12-18T18:26:35.719Z,15.47
2018-12-18T18:29:04.207Z,19.83
2018-12-18T18:31:32.625Z,14.33
2018-12-18T18:34:01.105Z,17.00
2018-12-18T18:36:29.460Z,13.40
2018-12-18T18:38:57.807Z,12.73
2018-12-18T18:41:26.140Z,7.60
2018-12-18T18:43:54.480Z,11.37
2018-12-18T18:46:22.875Z,13.83
2018-12-18T18:48:51.212Z,11.17
2018-12-18T18:51:19.579Z,8.30
2018-12-18T18:53:47.918Z,10.83
2018-12-18T18:56:17.241Z,10.63
2018-12-18T18:58:45.607Z,11.13
2018-12-18T19:01:14.259Z,10.87
2018-12-18T19:03:43.492Z,9.10
2018-12-18T19:06:11.864Z,10.40
2018-12-18T19:08:40.327Z,11.83
2018-12-18T19:11:08.676Z,15.03
2018-12-18T19:13:37.031Z,12.27
2018-12-18T19:16:05.396Z,10.97
2018-12-18T19:18:33.765Z,8.63
2018-12-18T19:21:02.297Z,11.53
2018-12-18T19:23:30.643Z,11.13
2018-12-18T19:25:59.117Z,7.80
2018-12-18T19:28:27.439Z,10.00
2018-12-18T19:30:55.795Z,11.20
2018-12-18T19:33:24.140Z,10.00
2018-12-18T19:35:52.467Z,13.60
2018-12-18T19:38:20.923Z,12.50
2018-12-18T19:40:49.254Z,12.47
2018-12-18T19:43:17.591Z,12.67
2018-12-18T19:45:46.180Z,11.03
2018-12-18T19:48:14.611Z,12.10
2018-12-18T19:50:42.963Z,8.60
2018-12-18T19:53:11.364Z,13.20
2018-12-18T19:55:39.880Z,11.80
2018-12-18T19:58:08.437Z,17.00
2018-12-18T20:00:36.911Z,10.73
2018-12-18T20:03:05.278Z,9.87
2018-12-18T20:05:33.627Z,12.53
2018-12-18T20:08:01.987Z,15.13
2018-12-18T20:10:30.319Z,11.50
2018-12-18T20:13:00.955Z,11.00
2018-12-18T20:15:29.321Z,15.03
2018-12-18T20:17:57.674Z,17.83
2018-12-18T20:20:26.055Z,14.20
2018-12-18T20:22:54.428Z,12.93
2018-12-18T20:25:22.860Z,14.17
2018-12-18T20:27:51.223Z,12.23
2018-12-18T20:30:19.585Z,11.67
2018-12-18T20:32:47.937Z,12.47
2018-12-18T20:35:16.280Z,10.80
2018-12-18T20:37:45.738Z,14.20
2018-12-18T20:40:14.262Z,14.57
2018-12-18T20:42:42.615Z,11.03
2018-12-18T20:45:11.041Z,19.20
2018-12-18T20:47:39.411Z,13.63
2018-12-18T20:50:08.062Z,11.67
2018-12-18T20:52:36.423Z,12.23
2018-12-18T20:55:05.392Z,15.93
2018-12-18T20:57:33.831Z,11.57
2018-12-18T21:00:02.612Z,10.10
2018-12-18T21:02:31.312Z,8.90
2018-12-18T21:05:00.088Z,11.43
2018-12-18T21:07:28.472Z,13.77
2018-12-18T21:09:56.833Z,11.83
2018-12-18T21:12:25.610Z,8.93
2018-12-18T21:15:00.533Z,12.53
2018-12-18T21:17:24.552Z,8.53
2018-12-18T21:19:52.916Z,12.13
2018-12-18T21:22:21.273Z,8.83
2018-12-18T21:24:49.666Z,10.33
2018-12-18T21:27:18.075Z,14.20
2018-12-18T21:29:46.430Z,10.30
2018-12-18T21:32:14.902Z,10.30
2018-12-18T21:34:43.251Z,10.13
2018-12-18T21:37:11.594Z,12.27
2018-12-18T21:39:39.971Z,12.10
2018-12-18T21:42:08.308Z,14.27
2018-12-18T21:44:36.687Z,12.10
2018-12-18T21:47:05.101Z,8.37
2018-12-18T21:49:33.628Z,15.73
2018-12-18T21:52:01.972Z,10.40
2018-12-18T21:54:30.376Z,11.93
2018-12-18T21:56:58.764Z,11.00
2018-12-18T21:59:27.131Z,10.60
2018-12-18T22:01:55.493Z,10.13
2018-12-18T22:04:23.977Z,13.10
2018-12-18T22:06:52.314Z,14.73
2018-12-18T22:09:20.668Z,15.03
2018-12-18T22:11:49.037Z,11.67
2018-12-18T22:14:17.498Z,15.07
2018-12-18T22:16:45.871Z,16.63
2018-12-18T22:19:14.244Z,12.43
2018-12-18T22:21:42.586Z,13.43
2018-12-18T22:24:10.968Z,16.03
2018-12-18T22:26:39.292Z,11.03
2018-12-18T22:29:07.749Z,11.80
2018-12-18T22:31:36.099Z,11.37
2018-12-18T22:34:04.479Z,14.93
2018-12-18T22:36:32.867Z,12.73
2018-12-18T22:39:01.211Z,14.40
2018-12-18T22:41:29.608Z,12.73
2018-12-18T22:43:57.951Z,15.40
2018-12-18T22:46:26.331Z,14.13
2018-12-18T22:48:54.659Z,13.53
2018-12-18T22:51:23.043Z,13.33
2018-12-18T22:53:51.395Z,12.97
2018-12-18T22:56:20.440Z,13.03
2018-12-18T22:58:48.776Z,12.63
2018-12-18T23:01:22.696Z,14.93
2018-12-18T23:03:51.055Z,15.63
2018-12-18T23:06:19.477Z,12.90
2018-12-18T23:08:50.391Z,13.70
2018-12-18T23:11:18.246Z,14.50
2018-12-18T23:13:46.592Z,13.97
2018-12-18T23:16:15.348Z,10.97
2018-12-18T23:18:43.750Z,14.27
2018-12-18T23:21:12.396Z,13.17
2018-12-18T23:23:40.861Z,11.77
2018-12-18T23:26:09.216Z,15.10
2018-12-18T23:28:37.682Z,17.20
2018-12-18T23:31:06.045Z,16.27
2018-12-18T23:33:34.433Z,15.20
2018-12-18T23:36:02.810Z,14.10
2018-12-18T23:38:31.592Z,17.57
2018-12-18T23:41:00.975Z,11.00
2018-12-18T23:43:29.327Z,13.67
2018-12-18T23:45:57.673Z,12.97
2018-12-18T23:48:26.145Z,12.20
2018-12-18T23:50:56.812Z,12.03
2018-12-18T23:53:25.197Z,15.57
2018-12-18T23:55:53.604Z,17.43
2018-12-18T23:58:21.975Z,14.37
